createdAt,value
2022-10-30T00:02:20.827Z,18.41
2022-10-30T00:04:51.638Z,18.48
2022-10-30T00:07:24.033Z,18.19
2022-10-30T00:09:53.813Z,18.17
2022-10-30T00:12:24.637Z,18.35
2022-10-30T00:14:54.470Z,18.28
2022-10-30T00:17:24.355Z,18.38
2022-10-30T00:19:55.209Z,18.37
2022-10-30T00:22:29.075Z,18.52
2022-10-30T00:24:59.858Z,18.51
2022-10-30T00:27:30.148Z,18.52
2022-10-30T00:30:00.003Z,18.28
2022-10-30T00:32:30.610Z,18.48
2022-10-30T00:35:01.468Z,18.51
2022-10-30T00:37:33.872Z,18.46
2022-10-30T00:40:03.659Z,18.39
2022-10-30T00:42:36.135Z,18.05
2022-10-30T00:45:08.323Z,18.31
2022-10-30T00:47:42.816Z,18.25
2022-10-30T00:50:17.997Z,18.42
2022-10-30T00:52:56.035Z,18.42
2022-10-30T00:55:30.267Z,18.52
2022-10-30T00:58:02.046Z,18.58
2022-10-30T01:00:33.545Z,18.58
2022-10-30T01:03:03.849Z,18.60
2022-10-30T01:05:36.370Z,18.62
2022-10-30T01:08:09.379Z,18.52
2022-10-30T01:10:39.340Z,18.51
2022-10-30T01:13:09.772Z,18.56
2022-10-30T01:15:44.249Z,18.57
2022-10-30T01:18:31.687Z,18.57
2022-10-30T01:21:15.756Z,18.30
2022-10-30T01:23:59.234Z,18.37
2022-10-30T01:26:44.361Z,18.50
2022-10-30T01:29:29.640Z,18.52
2022-10-30T01:32:17.255Z,18.37
2022-10-30T01:34:57.827Z,18.49
2022-10-30T01:37:35.251Z,18.59
2022-10-30T01:40:14.491Z,18.55
2022-10-30T01:42:55.249Z,18.44
2022-10-30T01:45:48.886Z,18.39
2022-10-30T01:48:41.950Z,18.32
2022-10-30T01:51:19.030Z,18.12
2022-10-30T01:53:59.278Z,18.35
2022-10-30T01:56:41.488Z,18.17
2022-10-30T01:59:18.125Z,18.25
2022-10-30T02:01:48.489Z,18.23
2022-10-30T02:04:19.106Z,18.36
2022-10-30T02:06:49.126Z,18.34
2022-10-30T02:09:19.645Z,18.31
2022-10-30T02:11:56.198Z,18.27
2022-10-30T02:14:31.339Z,18.37
2022-10-30T02:17:03.538Z,18.30
2022-10-30T02:19:33.324Z,18.30
2022-10-30T02:22:08.383Z,18.32
2022-10-30T02:24:38.342Z,18.44
2022-10-30T02:27:09.980Z,18.39
2022-10-30T02:29:42.942Z,18.24
2022-10-30T02:32:12.691Z,18.39
2022-10-30T02:34:43.057Z,18.10
2022-10-30T02:37:15.469Z,18.35
2022-10-30T02:39:45.482Z,18.21
2022-10-30T02:42:15.194Z,18.33
2022-10-30T02:44:45.076Z,18.16
2022-10-30T02:47:15.105Z,18.25
2022-10-30T02:49:44.891Z,18.27
2022-10-30T02:52:17.264Z,18.28
2022-10-30T02:54:47.049Z,18.21
2022-10-30T02:57:16.896Z,18.11
2022-10-30T02:59:47.709Z,18.21
2022-10-30T03:02:17.821Z,18.18
2022-10-30T03:04:47.667Z,18.21
2022-10-30T03:07:19.995Z,18.12
2022-10-30T03:09:49.739Z,18.19
2022-10-30T03:12:19.464Z,18.24
2022-10-30T03:14:49.267Z,17.85
2022-10-30T03:17:19.188Z,18.03
2022-10-30T03:19:51.561Z,17.99
2022-10-30T03:22:23.906Z,18.03
2022-10-30T03:24:53.961Z,17.97
2022-10-30T03:27:23.787Z,17.80
2022-10-30T03:29:53.955Z,17.99
2022-10-30T03:34:56.712Z,17.99
2022-10-30T03:37:29.055Z,18.01
2022-10-30T03:39:58.842Z,17.96
2022-10-30T03:42:28.626Z,17.95
2022-10-30T03:44:58.373Z,17.92
2022-10-30T03:47:28.105Z,17.93
2022-10-30T03:49:58.146Z,17.91
2022-10-30T03:52:30.709Z,17.92
2022-10-30T03:55:00.700Z,17.87
2022-10-30T03:57:30.563Z,17.85
2022-10-30T04:00:16.268Z,17.68
2022-10-30T04:02:57.094Z,17.82
2022-10-30T04:05:29.053Z,17.84
2022-10-30T04:08:04.273Z,17.85
2022-10-30T04:10:38.475Z,17.81
2022-10-30T04:13:14.163Z,17.77
2022-10-30T04:15:56.151Z,17.82
2022-10-30T04:18:27.524Z,17.77
2022-10-30T04:20:58.205Z,17.71
2022-10-30T04:23:30.771Z,17.70
2022-10-30T04:26:03.053Z,17.70
2022-10-30T04:28:32.870Z,17.62
2022-10-30T04:31:02.913Z,17.71
2022-10-30T04:33:34.065Z,17.72
2022-10-30T04:36:04.379Z,17.58
2022-10-30T04:38:37.473Z,17.67
2022-10-30T04:41:09.548Z,17.56
2022-10-30T04:43:55.586Z,17.58
2022-10-30T04:46:26.013Z,17.53
2022-10-30T04:48:58.208Z,17.54
2022-10-30T04:51:28.002Z,17.54
2022-10-30T04:54:00.424Z,17.60
2022-10-30T04:56:33.077Z,17.43
2022-10-30T04:59:04.651Z,17.54
2022-10-30T05:01:34.640Z,17.55
2022-10-30T05:04:05.837Z,17.43
2022-10-30T05:06:36.501Z,17.49
2022-10-30T05:09:08.857Z,17.49
2022-10-30T05:11:41.747Z,17.48
2022-10-30T05:14:11.537Z,17.25
2022-10-30T05:16:41.314Z,17.39
2022-10-30T05:19:11.118Z,17.16
2022-10-30T05:21:43.421Z,17.41
2022-10-30T05:24:15.922Z,17.45
2022-10-30T05:26:47.415Z,17.43
2022-10-30T05:29:19.096Z,17.44
2022-10-30T05:31:48.917Z,17.29
2022-10-30T05:34:18.694Z,17.42
2022-10-30T05:36:51.822Z,17.44
2022-10-30T05:39:25.679Z,17.40
2022-10-30T05:41:55.553Z,17.36
2022-10-30T05:44:47.343Z,17.36
2022-10-30T05:47:17.540Z,17.35
2022-10-30T05:49:51.110Z,17.26
2022-10-30T05:52:23.945Z,17.12
2022-10-30T05:54:57.080Z,17.20
2022-10-30T05:57:37.886Z,16.83
2022-10-30T06:00:10.184Z,16.89
2022-10-30T06:02:46.237Z,17.06
2022-10-30T06:05:19.696Z,17.08
2022-10-30T06:07:50.620Z,16.79
2022-10-30T06:10:24.231Z,16.81
2022-10-30T06:13:09.923Z,16.86
2022-10-30T06:16:02.059Z,16.80
2022-10-30T06:18:52.142Z,16.77
2022-10-30T06:21:22.054Z,16.83
2022-10-30T06:24:28.310Z,16.71
2022-10-30T06:27:16.302Z,16.84
2022-10-30T06:29:46.178Z,16.82
2022-10-30T06:32:17.044Z,16.57
2022-10-30T06:34:48.134Z,16.71
2022-10-30T06:37:20.922Z,16.77
2022-10-30T06:39:54.738Z,16.60
2022-10-30T06:42:50.070Z,16.64
2022-10-30T06:45:42.739Z,16.61
2022-10-30T06:48:12.851Z,16.64
2022-10-30T06:50:47.820Z,16.65
2022-10-30T06:53:17.854Z,16.64
2022-10-30T06:55:47.815Z,16.58
2022-10-30T06:58:42.235Z,16.61
2022-10-30T07:01:32.007Z,16.67
2022-10-30T07:04:20.794Z,16.63
2022-10-30T07:06:51.804Z,16.70
2022-10-30T07:09:25.034Z,16.63
2022-10-30T07:11:57.050Z,16.64
2022-10-30T07:14:47.887Z,16.62
2022-10-30T07:17:25.631Z,16.65
2022-10-30T07:20:01.272Z,16.71
2022-10-30T07:22:33.351Z,16.73
2022-10-30T07:25:03.332Z,16.63
2022-10-30T07:27:47.814Z,16.82
2022-10-30T07:30:47.070Z,16.97
2022-10-30T07:33:39.757Z,17.00
2022-10-30T07:36:22.046Z,17.06
2022-10-30T07:39:06.854Z,17.07
2022-10-30T07:41:49.741Z,17.09
2022-10-30T07:44:45.906Z,17.17
2022-10-30T07:47:45.622Z,17.19
2022-10-30T07:50:28.214Z,17.38
2022-10-30T07:52:58.517Z,17.46
2022-10-30T07:55:32.122Z,17.31
2022-10-30T07:58:05.518Z,17.60
2022-10-30T08:00:55.254Z,17.49
2022-10-30T08:03:35.809Z,17.70
2022-10-30T08:06:22.925Z,17.64
2022-10-30T08:08:57.302Z,17.76
2022-10-30T08:11:32.497Z,17.74
2022-10-30T08:14:04.034Z,17.75
2022-10-30T08:16:34.150Z,17.92
2022-10-30T08:19:09.992Z,18.07
2022-10-30T08:21:39.905Z,18.11
2022-10-30T08:24:14.049Z,18.05
2022-10-30T08:26:53.842Z,18.29
2022-10-30T08:29:25.622Z,18.05
2022-10-30T08:31:56.667Z,18.24
2022-10-30T08:34:32.450Z,18.39
2022-10-30T08:37:07.976Z,18.38
2022-10-30T08:39:38.937Z,18.43
2022-10-30T08:42:34.611Z,18.42
2022-10-30T08:45:10.625Z,18.56
2022-10-30T08:48:03.903Z,18.63
2022-10-30T08:50:46.722Z,18.79
2022-10-30T08:53:21.711Z,18.86
2022-10-30T08:55:54.257Z,18.86
2022-10-30T08:58:30.777Z,19.01
2022-10-30T09:01:01.755Z,19.05
2022-10-30T09:03:50.162Z,19.21
2022-10-30T09:06:45.360Z,19.28
2022-10-30T09:09:36.770Z,19.26
2022-10-30T09:12:07.965Z,19.20
2022-10-30T09:14:44.060Z,19.15
2022-10-30T09:17:15.952Z,19.15
2022-10-30T09:22:45.507Z,19.16
2022-10-30T09:25:17.584Z,19.37
2022-10-30T09:28:07.111Z,19.35
2022-10-30T09:30:58.969Z,19.58
2022-10-30T09:33:32.897Z,19.23
2022-10-30T09:36:35.891Z,19.61
2022-10-30T09:39:08.442Z,19.70
2022-10-30T09:41:56.631Z,19.79
2022-10-30T09:44:38.143Z,19.68
2022-10-30T09:47:24.081Z,19.89
2022-10-30T09:50:19.218Z,19.86
2022-10-30T09:53:00.531Z,19.96
2022-10-30T09:55:41.537Z,20.01
2022-10-30T09:58:30.868Z,20.08
2022-10-30T10:01:11.197Z,20.19
2022-10-30T10:03:59.267Z,20.10
2022-10-30T10:06:53.430Z,20.04
2022-10-30T10:09:47.562Z,20.08
2022-10-30T10:12:43.055Z,20.20
2022-10-30T10:15:19.834Z,20.19
2022-10-30T10:17:49.797Z,20.38
2022-10-30T10:20:29.666Z,20.32
2022-10-30T10:23:05.193Z,20.22
2022-10-30T10:25:35.568Z,20.51
2022-10-30T10:28:20.125Z,20.60
2022-10-30T10:30:58.329Z,20.56
2022-10-30T10:33:43.002Z,20.69
2022-10-30T10:36:26.617Z,20.78
2022-10-30T10:39:19.159Z,20.76
2022-10-30T10:42:12.020Z,20.92
2022-10-30T10:44:57.310Z,20.72
2022-10-30T10:48:00.990Z,20.92
2022-10-30T10:50:35.416Z,20.84
2022-10-30T10:53:13.335Z,20.95
2022-10-30T10:55:44.727Z,21.02
2022-10-30T10:58:21.795Z,21.05
2022-10-30T11:00:56.563Z,21.19
2022-10-30T11:03:32.915Z,21.21
2022-10-30T11:06:13.714Z,21.28
2022-10-30T11:08:45.802Z,21.25
2022-10-30T11:11:15.649Z,21.23
2022-10-30T11:13:46.772Z,21.48
2022-10-30T11:16:30.297Z,21.48
2022-10-30T11:19:05.591Z,21.61
2022-10-30T11:21:41.118Z,21.67
2022-10-30T11:24:29.126Z,21.60
2022-10-30T11:27:00.567Z,21.80
2022-10-30T11:29:32.285Z,21.85
2022-10-30T11:32:07.799Z,21.84
2022-10-30T11:34:39.508Z,21.73
2022-10-30T11:37:33.289Z,21.81
2022-10-30T11:40:10.338Z,22.00
2022-10-30T11:42:41.902Z,21.83
2022-10-30T11:45:18.673Z,22.10
2022-10-30T11:47:52.033Z,22.08
2022-10-30T11:50:23.782Z,21.95
2022-10-30T11:52:58.207Z,22.26
2022-10-30T11:55:36.236Z,22.28
2022-10-30T11:58:10.003Z,22.31
2022-10-30T12:00:44.849Z,22.12
2022-10-30T12:03:32.598Z,22.18
2022-10-30T12:06:19.853Z,22.47
2022-10-30T12:09:06.599Z,22.48
2022-10-30T12:11:39.308Z,22.36
2022-10-30T12:14:19.591Z,22.59
2022-10-30T12:16:51.474Z,22.56
2022-10-30T12:19:26.346Z,22.49
2022-10-30T12:21:58.772Z,22.64
2022-10-30T12:24:33.892Z,22.70
2022-10-30T12:27:19.724Z,22.74
2022-10-30T12:30:09.827Z,22.74
2022-10-30T12:32:50.766Z,22.65
2022-10-30T12:35:45.666Z,22.72
2022-10-30T12:38:25.042Z,22.78
2022-10-30T12:41:05.031Z,22.80
2022-10-30T12:43:37.975Z,22.74
2022-10-30T12:46:23.802Z,22.81
2022-10-30T12:49:01.675Z,22.77
2022-10-30T12:51:41.818Z,22.84
2022-10-30T12:54:22.013Z,22.84
2022-10-30T12:56:58.334Z,22.86
2022-10-30T12:59:35.768Z,22.59
2022-10-30T13:02:21.169Z,22.92
2022-10-30T13:04:55.599Z,22.91
2022-10-30T13:07:32.831Z,23.00
2022-10-30T13:10:13.053Z,22.98
2022-10-30T13:12:54.609Z,22.94
2022-10-30T13:15:28.684Z,23.03
2022-10-30T13:18:01.083Z,22.91
2022-10-30T13:20:37.417Z,22.95
2022-10-30T13:23:14.570Z,22.82
2022-10-30T13:25:55.041Z,23.08
2022-10-30T13:28:30.694Z,23.02
2022-10-30T13:31:09.988Z,23.19
2022-10-30T13:33:45.755Z,23.10
2022-10-30T13:36:24.060Z,23.09
2022-10-30T13:39:03.418Z,23.19
2022-10-30T13:41:42.705Z,23.13
2022-10-30T13:44:29.093Z,23.20
2022-10-30T13:47:12.871Z,23.06
2022-10-30T13:50:07.518Z,22.99
2022-10-30T13:52:43.287Z,23.06
2022-10-30T13:55:20.929Z,23.06
2022-10-30T13:57:55.424Z,22.99
2022-10-30T14:00:32.651Z,22.99
2022-10-30T14:03:19.836Z,23.05
2022-10-30T14:05:57.110Z,23.07
2022-10-30T14:08:36.359Z,23.02
2022-10-30T14:11:15.447Z,23.00
2022-10-30T14:13:54.025Z,23.03
2022-10-30T14:16:39.844Z,22.93
2022-10-30T14:19:12.282Z,22.97
2022-10-30T14:21:54.441Z,22.95
2022-10-30T14:24:30.767Z,22.88
2022-10-30T14:27:21.439Z,22.97
2022-10-30T14:29:54.291Z,22.93
2022-10-30T14:32:41.994Z,22.98
2022-10-30T14:35:39.864Z,22.80
2022-10-30T14:38:29.730Z,22.96
2022-10-30T14:41:27.136Z,22.85
2022-10-30T14:44:17.870Z,22.91
2022-10-30T14:47:02.108Z,22.92
2022-10-30T14:49:49.820Z,22.85
2022-10-30T14:52:32.252Z,22.77
2022-10-30T14:55:21.242Z,22.77
2022-10-30T14:57:55.961Z,22.73
2022-10-30T15:00:42.211Z,22.73
2022-10-30T15:03:29.117Z,22.59
2022-10-30T15:06:03.236Z,22.32
2022-10-30T15:08:54.334Z,22.53
2022-10-30T15:12:00.399Z,22.39
2022-10-30T15:17:33.065Z,22.25
2022-10-30T15:20:07.522Z,22.17
2022-10-30T15:22:43.623Z,22.01
2022-10-30T15:25:20.563Z,21.99
2022-10-30T15:27:55.502Z,22.09
2022-10-30T15:30:28.709Z,22.02
2022-10-30T15:33:02.759Z,21.88
2022-10-30T15:35:39.673Z,21.87
2022-10-30T15:38:12.909Z,21.71
2022-10-30T15:40:44.859Z,21.68
2022-10-30T15:43:19.569Z,21.47
2022-10-30T15:45:52.185Z,21.48
2022-10-30T15:48:29.281Z,21.44
2022-10-30T15:51:03.876Z,21.16
2022-10-30T15:53:41.123Z,21.23
2022-10-30T15:56:20.658Z,21.15
2022-10-30T15:58:54.442Z,21.08
2022-10-30T16:01:28.656Z,21.02
2022-10-30T16:04:01.485Z,20.84
2022-10-30T16:06:32.956Z,20.70
2022-10-30T16:09:06.379Z,20.74
2022-10-30T16:11:36.406Z,20.52
2022-10-30T16:14:10.758Z,20.75
2022-10-30T16:16:40.693Z,20.62
2022-10-30T16:19:27.948Z,20.59
2022-10-30T16:22:01.268Z,20.50
2022-10-30T16:24:35.831Z,20.47
2022-10-30T16:27:08.088Z,20.37
2022-10-30T16:29:38.717Z,20.28
2022-10-30T16:32:15.716Z,20.24
2022-10-30T16:34:50.431Z,20.13
2022-10-30T16:37:23.657Z,19.92
2022-10-30T16:39:55.883Z,19.85
2022-10-30T16:42:28.760Z,19.91
2022-10-30T16:45:29.172Z,19.62
2022-10-30T16:48:08.341Z,19.68
2022-10-30T16:50:42.520Z,19.69
2022-10-30T16:53:21.156Z,19.63
2022-10-30T16:55:51.404Z,19.62
2022-10-30T16:58:27.868Z,19.56
2022-10-30T17:01:04.589Z,19.50
2022-10-30T17:03:39.181Z,19.40
2022-10-30T17:06:30.119Z,19.34
2022-10-30T17:09:02.286Z,19.22
2022-10-30T17:11:42.080Z,20.27
2022-10-30T17:14:21.606Z,19.62
2022-10-30T17:16:56.932Z,19.47
2022-10-30T17:19:47.388Z,19.25
2022-10-30T17:22:23.142Z,19.14
2022-10-30T17:24:53.158Z,19.03
2022-10-30T17:27:43.545Z,19.04
2022-10-30T17:30:35.822Z,18.82
2022-10-30T17:33:25.884Z,18.77
2022-10-30T17:35:56.695Z,18.77
2022-10-30T17:38:29.561Z,18.78
2022-10-30T17:41:00.590Z,18.72
2022-10-30T17:43:33.547Z,18.64
2022-10-30T17:46:07.070Z,18.61
2022-10-30T17:48:36.912Z,18.69
2022-10-30T17:51:07.049Z,18.55
2022-10-30T17:53:41.914Z,18.67
2022-10-30T17:56:18.781Z,18.55
2022-10-30T17:58:51.775Z,18.54
2022-10-30T18:01:25.175Z,18.43
2022-10-30T18:03:58.081Z,18.46
2022-10-30T18:06:30.644Z,18.49
2022-10-30T18:09:03.162Z,18.46
2022-10-30T18:11:34.022Z,18.34
2022-10-30T18:14:04.978Z,18.38
2022-10-30T18:16:34.870Z,18.26
2022-10-30T18:19:13.846Z,18.26
2022-10-30T18:21:45.308Z,18.16
2022-10-30T18:24:18.224Z,17.98
2022-10-30T18:26:48.317Z,18.01
2022-10-30T18:29:19.269Z,17.76
2022-10-30T18:31:49.386Z,17.81
2022-10-30T18:34:22.318Z,17.81
2022-10-30T18:36:53.135Z,17.87
2022-10-30T18:39:25.662Z,17.77
2022-10-30T18:41:55.590Z,17.83
2022-10-30T18:44:26.509Z,17.78
2022-10-30T18:47:01.613Z,17.70
2022-10-30T18:49:33.580Z,17.78
2022-10-30T18:52:04.574Z,17.70
2022-10-30T18:54:38.094Z,17.81
2022-10-30T18:57:08.232Z,17.75
2022-10-30T18:59:39.321Z,17.75
2022-10-30T19:02:23.190Z,17.68
2022-10-30T19:04:55.286Z,17.65
2022-10-30T19:07:25.313Z,17.54
2022-10-30T19:09:59.568Z,17.62
2022-10-30T19:12:29.635Z,17.49
2022-10-30T19:15:02.990Z,17.59
2022-10-30T19:17:33.959Z,17.54
2022-10-30T19:20:04.874Z,17.47
2022-10-30T19:22:34.879Z,17.49
2022-10-30T19:25:19.882Z,17.42
2022-10-30T19:27:50.086Z,17.43
2022-10-30T19:30:22.823Z,17.44
2022-10-30T19:32:55.969Z,17.44
2022-10-30T19:35:28.287Z,17.37
2022-10-30T19:37:59.826Z,17.33
2022-10-30T19:40:39.535Z,17.14
2022-10-30T19:43:10.362Z,17.18
2022-10-30T19:45:40.269Z,17.17
2022-10-30T19:48:20.738Z,17.19
2022-10-30T19:50:55.594Z,17.22
2022-10-30T19:53:25.587Z,17.15
2022-10-30T19:55:59.969Z,17.18
2022-10-30T19:58:31.032Z,16.91
2022-10-30T20:01:02.047Z,16.87
2022-10-30T20:03:32.921Z,16.77
2022-10-30T20:06:05.834Z,16.82
2022-10-30T20:08:36.729Z,16.72
2022-10-30T20:11:11.052Z,16.66
2022-10-30T20:13:42.022Z,16.73
2022-10-30T20:16:16.169Z,16.70
2022-10-30T20:18:46.030Z,16.58
2022-10-30T20:21:16.480Z,16.68
2022-10-30T20:23:47.518Z,16.70
2022-10-30T20:26:26.946Z,16.76
2022-10-30T20:28:59.023Z,16.83
2022-10-30T20:31:28.994Z,16.81
2022-10-30T20:33:58.955Z,17.01
2022-10-30T20:36:28.953Z,17.06
2022-10-30T20:38:58.798Z,17.03
2022-10-30T20:41:32.575Z,17.05
2022-10-30T20:44:02.379Z,17.14
2022-10-30T20:46:34.543Z,17.14
2022-10-30T20:49:16.974Z,17.10
2022-10-30T20:51:49.633Z,16.90
2022-10-30T20:54:19.870Z,16.91
2022-10-30T20:56:54.355Z,17.05
2022-10-30T20:59:24.503Z,17.05
2022-10-30T21:01:54.363Z,17.03
2022-10-30T21:04:25.451Z,16.95
2022-10-30T21:06:56.257Z,16.83
2022-10-30T21:09:28.191Z,16.91
2022-10-30T21:12:01.921Z,16.84
2022-10-30T21:14:32.812Z,16.73
2022-10-30T21:17:03.683Z,16.86
2022-10-30T21:19:33.497Z,16.74
2022-10-30T21:22:03.400Z,16.55
2022-10-30T21:24:34.522Z,16.82
2022-10-30T21:27:08.929Z,16.60
2022-10-30T21:29:40.696Z,16.67
2022-10-30T21:32:11.649Z,16.76
2022-10-30T21:34:41.496Z,16.71
2022-10-30T21:37:11.272Z,16.69
2022-10-30T21:39:43.034Z,16.70
2022-10-30T21:42:18.542Z,16.70
2022-10-30T21:44:48.381Z,16.64
2022-10-30T21:47:21.989Z,16.62
2022-10-30T21:49:52.996Z,16.62
2022-10-30T21:52:28.879Z,16.74
2022-10-30T21:55:04.649Z,16.70
2022-10-30T21:57:38.126Z,16.62
2022-10-30T22:00:10.533Z,16.41
2022-10-30T22:02:41.471Z,16.51
2022-10-30T22:05:13.219Z,16.43
2022-10-30T22:07:43.085Z,16.15
2022-10-30T22:10:13.109Z,16.26
2022-10-30T22:12:47.487Z,16.31
2022-10-30T22:15:19.457Z,16.36
2022-10-30T22:17:50.273Z,16.32
2022-10-30T22:20:22.020Z,16.35
2022-10-30T22:22:51.849Z,16.28
2022-10-30T22:25:22.938Z,16.36
2022-10-30T22:27:55.303Z,16.37
2022-10-30T22:30:25.073Z,16.20
2022-10-30T22:32:56.050Z,16.33
2022-10-30T22:35:26.072Z,16.41
2022-10-30T22:38:00.318Z,16.39
2022-10-30T22:40:31.040Z,16.34
2022-10-30T22:43:05.734Z,16.12
2022-10-30T22:45:35.614Z,16.17
2022-10-30T22:48:08.059Z,16.25
2022-10-30T22:50:40.864Z,16.14
2022-10-30T22:53:11.725Z,16.11
2022-10-30T22:55:42.542Z,16.10
2022-10-30T22:58:15.983Z,16.11
2022-10-30T23:00:46.787Z,16.07
2022-10-30T23:03:17.726Z,16.05
2022-10-30T23:05:48.585Z,15.90
2022-10-30T23:08:21.946Z,16.04
2022-10-30T23:10:54.847Z,15.99
2022-10-30T23:13:27.828Z,16.03
2022-10-30T23:16:02.352Z,15.97
2022-10-30T23:18:32.442Z,15.97
2022-10-30T23:21:06.839Z,16.02
2022-10-30T23:23:37.728Z,15.85
2022-10-30T23:26:11.072Z,15.97
2022-10-30T23:28:44.873Z,16.04
2022-10-30T23:31:21.498Z,16.08
2022-10-30T23:33:51.588Z,16.06
2022-10-30T23:36:23.197Z,15.94
2022-10-30T23:38:55.580Z,16.13
2022-10-30T23:41:27.081Z,16.09
2022-10-30T23:44:02.914Z,16.15
2022-10-30T23:46:35.810Z,15.92
2022-10-30T23:49:07.193Z,16.08
2022-10-30T23:51:38.236Z,15.99
2022-10-30T23:54:08.988Z,15.88
2022-10-30T23:56:39.797Z,15.86
2022-10-30T23:59:12.683Z,15.87
